sensor_id;sensor_type;location;lat;lon;timestamp;P1;durP1;ratioP1;P2;durP2;ratioP2
146;SDS011;45999;48.808;9.182;2022-11-15T00:00:48;9.13;;;5.50;;
146;SDS011;45999;48.808;9.182;2022-11-15T00:03:19;11.47;;;5.63;;
146;SDS011;45999;48.808;9.182;2022-11-15T00:05:50;7.70;;;5.50;;
146;SDS011;45999;48.808;9.182;2022-11-15T00:08:17;8.40;;;5.93;;
146;SDS011;45999;48.808;9.182;2022-11-15T00:10:53;5.63;;;5.10;;
146;SDS011;45999;48.808;9.182;2022-11-15T00:13:23;5.27;;;4.67;;
146;SDS011;45999;48.808;9.182;2022-11-15T00:15:50;6.97;;;4.90;;
146;SDS011;45999;48.808;9.182;2022-11-15T00:18:17;7.33;;;4.50;;
146;SDS011;45999;48.808;9.182;2022-11-15T00:20:44;7.93;;;4.63;;
146;SDS011;45999;48.808;9.182;2022-11-15T00:23:10;5.27;;;4.03;;
146;SDS011;45999;48.808;9.182;2022-11-15T00:25:37;5.43;;;4.43;;
146;SDS011;45999;48.808;9.182;2022-11-15T00:28:03;5.20;;;3.47;;
146;SDS011;45999;48.808;9.182;2022-11-15T00:30:31;4.90;;;3.60;;
146;SDS011;45999;48.808;9.182;2022-11-15T00:33:00;6.33;;;3.47;;
146;SDS011;45999;48.808;9.182;2022-11-15T00:35:28;4.17;;;3.70;;
146;SDS011;45999;48.808;9.182;2022-11-15T00:37:54;3.53;;;3.17;;
146;SDS011;45999;48.808;9.182;2022-11-15T00:40:21;5.10;;;3.27;;
146;SDS011;45999;48.808;9.182;2022-11-15T00:42:47;8.17;;;3.70;;
146;SDS011;45999;48.808;9.182;2022-11-15T00:45:13;5.20;;;4.10;;
146;SDS011;45999;48.808;9.182;2022-11-15T00:47:40;5.47;;;3.70;;
146;SDS011;45999;48.808;9.182;2022-11-15T00:50:06;6.17;;;4.07;;
146;SDS011;45999;48.808;9.182;2022-11-15T00:52:33;4.23;;;3.83;;
146;SDS011;45999;48.808;9.182;2022-11-15T00:54:59;5.80;;;4.00;;
146;SDS011;45999;48.808;9.182;2022-11-15T00:57:26;6.90;;;4.30;;
146;SDS011;45999;48.808;9.182;2022-11-15T00:59:52;6.27;;;3.57;;
146;SDS011;45999;48.808;9.182;2022-11-15T01:02:19;6.37;;;4.23;;
146;SDS011;45999;48.808;9.182;2022-11-15T01:04:45;7.00;;;3.90;;
146;SDS011;45999;48.808;9.182;2022-11-15T01:07:11;3.90;;;3.17;;
146;SDS011;45999;48.808;9.182;2022-11-15T01:09:38;4.23;;;3.77;;
146;SDS011;45999;48.808;9.182;2022-11-15T01:12:04;4.57;;;3.13;;
146;SDS011;45999;48.808;9.182;2022-11-15T01:14:31;6.20;;;3.80;;
146;SDS011;45999;48.808;9.182;2022-11-15T01:16:57;3.80;;;3.20;;
146;SDS011;45999;48.808;9.182;2022-11-15T01:19:24;3.47;;;3.17;;
146;SDS011;45999;48.808;9.182;2022-11-15T01:21:50;3.80;;;3.50;;
146;SDS011;45999;48.808;9.182;2022-11-15T01:24:17;6.10;;;3.47;;
146;SDS011;45999;48.808;9.182;2022-11-15T01:26:44;5.50;;;3.53;;
146;SDS011;45999;48.808;9.182;2022-11-15T01:29:10;6.50;;;3.57;;
146;SDS011;45999;48.808;9.182;2022-11-15T01:31:37;4.20;;;3.40;;
146;SDS011;45999;48.808;9.182;2022-11-15T01:34:03;4.70;;;3.37;;
146;SDS011;45999;48.808;9.182;2022-11-15T01:36:30;4.43;;;3.60;;
146;SDS011;45999;48.808;9.182;2022-11-15T01:38:57;5.93;;;3.73;;
146;SDS011;45999;48.808;9.182;2022-11-15T01:41:32;5.50;;;3.57;;
146;SDS011;45999;48.808;9.182;2022-11-15T01:46:57;5.03;;;3.97;;
146;SDS011;45999;48.808;9.182;2022-11-15T01:49:25;4.63;;;3.90;;
146;SDS011;45999;48.808;9.182;2022-11-15T01:51:54;4.67;;;3.63;;
146;SDS011;45999;48.808;9.182;2022-11-15T01:54:21;4.70;;;3.87;;
146;SDS011;45999;48.808;9.182;2022-11-15T01:56:54;5.73;;;4.23;;
146;SDS011;45999;48.808;9.182;2022-11-15T01:59:27;5.20;;;4.00;;
146;SDS011;45999;48.808;9.182;2022-11-15T02:01:54;8.03;;;3.83;;
146;SDS011;45999;48.808;9.182;2022-11-15T02:04:24;5.27;;;4.07;;
146;SDS011;45999;48.808;9.182;2022-11-15T02:06:53;5.30;;;4.37;;
146;SDS011;45999;48.808;9.182;2022-11-15T02:09:20;6.37;;;4.30;;
146;SDS011;45999;48.808;9.182;2022-11-15T02:11:46;6.20;;;4.30;;
146;SDS011;45999;48.808;9.182;2022-11-15T02:14:14;5.17;;;4.27;;
146;SDS011;45999;48.808;9.182;2022-11-15T02:19:35;5.80;;;4.00;;
146;SDS011;45999;48.808;9.182;2022-11-15T02:22:30;4.40;;;3.97;;
146;SDS011;45999;48.808;9.182;2022-11-15T02:28:16;7.17;;;4.33;;
146;SDS011;45999;48.808;9.182;2022-11-15T02:35:58;7.37;;;3.97;;
146;SDS011;45999;48.808;9.182;2022-11-15T02:38:31;5.27;;;4.00;;
146;SDS011;45999;48.808;9.182;2022-11-15T02:41:03;6.60;;;3.90;;
146;SDS011;45999;48.808;9.182;2022-11-15T02:43:45;5.43;;;3.90;;
146;SDS011;45999;48.808;9.182;2022-11-15T02:49:31;4.17;;;3.20;;
146;SDS011;45999;48.808;9.182;2022-11-15T02:51:58;6.83;;;3.70;;
146;SDS011;45999;48.808;9.182;2022-11-15T02:54:26;4.13;;;3.67;;
146;SDS011;45999;48.808;9.182;2022-11-15T02:56:56;7.63;;;3.30;;
146;SDS011;45999;48.808;9.182;2022-11-15T03:08:22;5.17;;;3.30;;
146;SDS011;45999;48.808;9.182;2022-11-15T03:14:36;3.90;;;3.53;;
146;SDS011;45999;48.808;9.182;2022-11-15T03:17:21;5.10;;;3.60;;
146;SDS011;45999;48.808;9.182;2022-11-15T03:19:45;6.77;;;3.30;;
146;SDS011;45999;48.808;9.182;2022-11-15T03:22:15;4.17;;;3.60;;
146;SDS011;45999;48.808;9.182;2022-11-15T03:24:45;6.60;;;4.60;;
146;SDS011;45999;48.808;9.182;2022-11-15T03:27:15;4.83;;;3.40;;
146;SDS011;45999;48.808;9.182;2022-11-15T03:29:50;6.63;;;3.93;;
146;SDS011;45999;48.808;9.182;2022-11-15T03:32:28;7.00;;;4.00;;
146;SDS011;45999;48.808;9.182;2022-11-15T03:35:10;6.23;;;4.07;;
146;SDS011;45999;48.808;9.182;2022-11-15T03:37:49;4.90;;;4.37;;
146;SDS011;45999;48.808;9.182;2022-11-15T03:40:42;6.10;;;4.40;;
146;SDS011;45999;48.808;9.182;2022-11-15T03:46:17;5.57;;;4.60;;
146;SDS011;45999;48.808;9.182;2022-11-15T03:48:51;6.10;;;4.10;;
146;SDS011;45999;48.808;9.182;2022-11-15T03:51:20;4.83;;;4.27;;
146;SDS011;45999;48.808;9.182;2022-11-15T03:53:47;6.17;;;4.63;;
146;SDS011;45999;48.808;9.182;2022-11-15T03:56:13;7.03;;;4.63;;
146;SDS011;45999;48.808;9.182;2022-11-15T03:58:40;6.80;;;4.17;;
146;SDS011;45999;48.808;9.182;2022-11-15T04:01:06;4.57;;;4.00;;
146;SDS011;45999;48.808;9.182;2022-11-15T04:03:32;4.70;;;3.70;;
146;SDS011;45999;48.808;9.182;2022-11-15T04:05:59;6.00;;;4.27;;
146;SDS011;45999;48.808;9.182;2022-11-15T04:08:25;4.47;;;3.93;;
146;SDS011;45999;48.808;9.182;2022-11-15T04:10:52;6.37;;;4.60;;
146;SDS011;45999;48.808;9.182;2022-11-15T04:13:18;8.03;;;4.60;;
146;SDS011;45999;48.808;9.182;2022-11-15T04:15:44;5.27;;;4.27;;
146;SDS011;45999;48.808;9.182;2022-11-15T04:18:11;6.90;;;4.27;;
146;SDS011;45999;48.808;9.182;2022-11-15T04:20:37;6.27;;;4.10;;
146;SDS011;45999;48.808;9.182;2022-11-15T04:23:33;6.47;;;5.03;;
146;SDS011;45999;48.808;9.182;2022-11-15T04:26:25;6.47;;;4.57;;
146;SDS011;45999;48.808;9.182;2022-11-15T04:28:51;7.37;;;4.37;;
146;SDS011;45999;48.808;9.182;2022-11-15T04:31:35;6.37;;;4.33;;
146;SDS011;45999;48.808;9.182;2022-11-15T04:34:01;7.47;;;4.33;;
146;SDS011;45999;48.808;9.182;2022-11-15T04:36:28;6.27;;;3.97;;
146;SDS011;45999;48.808;9.182;2022-11-15T04:39:12;6.57;;;4.13;;
146;SDS011;45999;48.808;9.182;2022-11-15T04:41:38;6.40;;;3.57;;
146;SDS011;45999;48.808;9.182;2022-11-15T04:44:04;5.00;;;3.90;;
146;SDS011;45999;48.808;9.182;2022-11-15T04:46:31;7.20;;;3.70;;
146;SDS011;45999;48.808;9.182;2022-11-15T04:48:58;3.83;;;3.43;;
146;SDS011;45999;48.808;9.182;2022-11-15T04:51:25;6.10;;;4.20;;
146;SDS011;45999;48.808;9.182;2022-11-15T04:53:51;5.47;;;3.70;;
146;SDS011;45999;48.808;9.182;2022-11-15T04:56:17;4.63;;;3.70;;
146;SDS011;45999;48.808;9.182;2022-11-15T04:58:44;3.97;;;3.53;;
146;SDS011;45999;48.808;9.182;2022-11-15T05:01:11;6.07;;;4.00;;
146;SDS011;45999;48.808;9.182;2022-11-15T05:03:43;5.87;;;3.80;;
146;SDS011;45999;48.808;9.182;2022-11-15T05:06:33;5.87;;;3.70;;
146;SDS011;45999;48.808;9.182;2022-11-15T05:08:59;6.13;;;4.00;;
146;SDS011;45999;48.808;9.182;2022-11-15T05:11:25;5.07;;;3.50;;
146;SDS011;45999;48.808;9.182;2022-11-15T05:13:53;5.47;;;3.57;;
146;SDS011;45999;48.808;9.182;2022-11-15T05:16:19;4.50;;;3.60;;
146;SDS011;45999;48.808;9.182;2022-11-15T05:18:45;7.00;;;3.10;;
146;SDS011;45999;48.808;9.182;2022-11-15T05:21:13;6.03;;;3.37;;
146;SDS011;45999;48.808;9.182;2022-11-15T05:23:41;4.50;;;3.20;;
146;SDS011;45999;48.808;9.182;2022-11-15T05:26:08;4.70;;;3.63;;
146;SDS011;45999;48.808;9.182;2022-11-15T05:28:35;6.67;;;3.53;;
146;SDS011;45999;48.808;9.182;2022-11-15T05:31:06;3.93;;;3.37;;
146;SDS011;45999;48.808;9.182;2022-11-15T05:33:35;3.83;;;3.37;;
146;SDS011;45999;48.808;9.182;2022-11-15T05:36:21;5.67;;;3.60;;
146;SDS011;45999;48.808;9.182;2022-11-15T05:38:49;4.03;;;3.33;;
146;SDS011;45999;48.808;9.182;2022-11-15T05:41:17;8.87;;;3.97;;
146;SDS011;45999;48.808;9.182;2022-11-15T05:43:46;6.17;;;3.67;;
146;SDS011;45999;48.808;9.182;2022-11-15T05:46:16;4.83;;;3.30;;
146;SDS011;45999;48.808;9.182;2022-11-15T05:48:44;5.30;;;3.97;;
146;SDS011;45999;48.808;9.182;2022-11-15T05:51:13;4.67;;;3.80;;
146;SDS011;45999;48.808;9.182;2022-11-15T05:53:41;6.00;;;4.03;;
146;SDS011;45999;48.808;9.182;2022-11-15T05:56:08;6.00;;;4.17;;
146;SDS011;45999;48.808;9.182;2022-11-15T05:58:35;7.10;;;4.37;;
146;SDS011;45999;48.808;9.182;2022-11-15T06:01:02;5.30;;;4.40;;
146;SDS011;45999;48.808;9.182;2022-11-15T06:03:29;6.97;;;3.90;;
146;SDS011;45999;48.808;9.182;2022-11-15T06:05:56;7.33;;;4.50;;
146;SDS011;45999;48.808;9.182;2022-11-15T06:08:22;8.00;;;4.53;;
146;SDS011;45999;48.808;9.182;2022-11-15T06:10:49;7.60;;;4.97;;
146;SDS011;45999;48.808;9.182;2022-11-15T06:13:15;5.30;;;4.53;;
146;SDS011;45999;48.808;9.182;2022-11-15T06:15:41;7.07;;;4.30;;
146;SDS011;45999;48.808;9.182;2022-11-15T06:18:08;7.47;;;5.20;;
146;SDS011;45999;48.808;9.182;2022-11-15T06:20:34;7.53;;;4.43;;
146;SDS011;45999;48.808;9.182;2022-11-15T06:23:01;6.77;;;5.10;;
146;SDS011;45999;48.808;9.182;2022-11-15T06:25:29;5.93;;;5.20;;
146;SDS011;45999;48.808;9.182;2022-11-15T06:27:57;7.50;;;5.00;;
146;SDS011;45999;48.808;9.182;2022-11-15T06:30:25;7.83;;;5.70;;
146;SDS011;45999;48.808;9.182;2022-11-15T06:32:58;6.67;;;5.30;;
146;SDS011;45999;48.808;9.182;2022-11-15T06:35:25;9.90;;;4.97;;
146;SDS011;45999;48.808;9.182;2022-11-15T06:37:52;8.27;;;5.40;;
146;SDS011;45999;48.808;9.182;2022-11-15T06:40:18;6.30;;;4.67;;
146;SDS011;45999;48.808;9.182;2022-11-15T06:42:44;9.93;;;5.17;;
146;SDS011;45999;48.808;9.182;2022-11-15T06:45:11;7.97;;;5.60;;
146;SDS011;45999;48.808;9.182;2022-11-15T06:47:44;5.87;;;4.80;;
146;SDS011;45999;48.808;9.182;2022-11-15T06:50:11;12.40;;;5.27;;
146;SDS011;45999;48.808;9.182;2022-11-15T06:52:38;9.20;;;4.80;;
146;SDS011;45999;48.808;9.182;2022-11-15T06:55:04;5.70;;;4.50;;
146;SDS011;45999;48.808;9.182;2022-11-15T06:57:31;7.17;;;4.80;;
146;SDS011;45999;48.808;9.182;2022-11-15T06:59:58;6.80;;;4.40;;
146;SDS011;45999;48.808;9.182;2022-11-15T07:02:24;8.27;;;5.07;;
146;SDS011;45999;48.808;9.182;2022-11-15T07:04:50;10.93;;;4.47;;
146;SDS011;45999;48.808;9.182;2022-11-15T07:07:17;9.43;;;5.03;;
146;SDS011;45999;48.808;9.182;2022-11-15T07:09:43;10.80;;;4.50;;
146;SDS011;45999;48.808;9.182;2022-11-15T07:12:09;7.27;;;4.57;;
146;SDS011;45999;48.808;9.182;2022-11-15T07:14:36;9.67;;;4.47;;
146;SDS011;45999;48.808;9.182;2022-11-15T07:17:03;9.87;;;4.73;;
146;SDS011;45999;48.808;9.182;2022-11-15T07:19:30;8.30;;;4.90;;
146;SDS011;45999;48.808;9.182;2022-11-15T07:21:57;8.07;;;4.90;;
146;SDS011;45999;48.808;9.182;2022-11-15T07:24:23;9.17;;;4.73;;
146;SDS011;45999;48.808;9.182;2022-11-15T07:26:50;9.83;;;5.13;;
146;SDS011;45999;48.808;9.182;2022-11-15T07:29:16;8.90;;;5.07;;
146;SDS011;45999;48.808;9.182;2022-11-15T07:31:42;7.50;;;4.60;;
146;SDS011;45999;48.808;9.182;2022-11-15T07:34:09;5.23;;;4.30;;
146;SDS011;45999;48.808;9.182;2022-11-15T07:36:35;6.57;;;4.27;;
146;SDS011;45999;48.808;9.182;2022-11-15T07:39:02;9.93;;;4.93;;
146;SDS011;45999;48.808;9.182;2022-11-15T07:41:28;10.80;;;5.10;;
146;SDS011;45999;48.808;9.182;2022-11-15T07:43:55;10.37;;;4.60;;
146;SDS011;45999;48.808;9.182;2022-11-15T07:46:22;9.77;;;4.50;;
146;SDS011;45999;48.808;9.182;2022-11-15T07:48:49;11.07;;;4.27;;
146;SDS011;45999;48.808;9.182;2022-11-15T07:51:15;8.17;;;4.27;;
146;SDS011;45999;48.808;9.182;2022-11-15T07:53:43;7.87;;;4.33;;
146;SDS011;45999;48.808;9.182;2022-11-15T07:56:09;5.83;;;3.67;;
146;SDS011;45999;48.808;9.182;2022-11-15T07:58:36;8.93;;;4.50;;
146;SDS011;45999;48.808;9.182;2022-11-15T08:01:03;10.97;;;5.27;;
146;SDS011;45999;48.808;9.182;2022-11-15T08:03:30;13.57;;;5.87;;
146;SDS011;45999;48.808;9.182;2022-11-15T08:05:58;10.17;;;5.57;;
146;SDS011;45999;48.808;9.182;2022-11-15T08:08:25;11.40;;;5.20;;
146;SDS011;45999;48.808;9.182;2022-11-15T08:10:51;18.77;;;6.80;;
146;SDS011;45999;48.808;9.182;2022-11-15T08:13:18;11.17;;;5.83;;
146;SDS011;45999;48.808;9.182;2022-11-15T08:15:44;10.70;;;6.30;;
146;SDS011;45999;48.808;9.182;2022-11-15T08:18:11;9.40;;;6.40;;
146;SDS011;45999;48.808;9.182;2022-11-15T08:20:40;8.33;;;6.13;;
146;SDS011;45999;48.808;9.182;2022-11-15T08:23:07;12.43;;;6.17;;
146;SDS011;45999;48.808;9.182;2022-11-15T08:25:35;9.07;;;6.23;;
146;SDS011;45999;48.808;9.182;2022-11-15T08:28:03;13.30;;;6.07;;
146;SDS011;45999;48.808;9.182;2022-11-15T08:30:34;8.33;;;5.87;;
146;SDS011;45999;48.808;9.182;2022-11-15T08:33:03;14.03;;;6.43;;
146;SDS011;45999;48.808;9.182;2022-11-15T08:35:29;11.03;;;5.90;;
146;SDS011;45999;48.808;9.182;2022-11-15T08:37:55;8.07;;;5.00;;
146;SDS011;45999;48.808;9.182;2022-11-15T08:40:22;11.93;;;5.37;;
146;SDS011;45999;48.808;9.182;2022-11-15T08:42:48;11.23;;;5.10;;
146;SDS011;45999;48.808;9.182;2022-11-15T08:45:15;10.10;;;5.57;;
146;SDS011;45999;48.808;9.182;2022-11-15T08:47:41;11.67;;;5.70;;
146;SDS011;45999;48.808;9.182;2022-11-15T08:50:08;8.40;;;5.77;;
146;SDS011;45999;48.808;9.182;2022-11-15T08:52:34;7.57;;;5.10;;
146;SDS011;45999;48.808;9.182;2022-11-15T08:55:01;6.37;;;5.10;;
146;SDS011;45999;48.808;9.182;2022-11-15T08:57:30;9.10;;;5.40;;
146;SDS011;45999;48.808;9.182;2022-11-15T08:59:57;8.03;;;4.60;;
146;SDS011;45999;48.808;9.182;2022-11-15T09:02:23;9.27;;;4.60;;
146;SDS011;45999;48.808;9.182;2022-11-15T09:04:50;9.07;;;5.03;;
146;SDS011;45999;48.808;9.182;2022-11-15T09:07:16;9.27;;;4.87;;
146;SDS011;45999;48.808;9.182;2022-11-15T09:09:43;6.37;;;4.97;;
146;SDS011;45999;48.808;9.182;2022-11-15T09:12:09;8.70;;;4.43;;
146;SDS011;45999;48.808;9.182;2022-11-15T09:14:36;10.27;;;4.83;;
146;SDS011;45999;48.808;9.182;2022-11-15T09:17:02;7.27;;;4.60;;
146;SDS011;45999;48.808;9.182;2022-11-15T09:19:29;6.47;;;4.53;;
146;SDS011;45999;48.808;9.182;2022-11-15T09:21:55;4.10;;;3.70;;
146;SDS011;45999;48.808;9.182;2022-11-15T09:24:22;9.07;;;5.07;;
146;SDS011;45999;48.808;9.182;2022-11-15T09:26:49;9.97;;;5.47;;
146;SDS011;45999;48.808;9.182;2022-11-15T09:29:17;6.17;;;5.43;;
146;SDS011;45999;48.808;9.182;2022-11-15T09:31:44;8.87;;;5.20;;
146;SDS011;45999;48.808;9.182;2022-11-15T09:34:11;7.63;;;5.23;;
146;SDS011;45999;48.808;9.182;2022-11-15T09:36:37;7.57;;;5.47;;
146;SDS011;45999;48.808;9.182;2022-11-15T09:39:04;12.00;;;5.67;;
146;SDS011;45999;48.808;9.182;2022-11-15T09:41:40;6.23;;;4.33;;
146;SDS011;45999;48.808;9.182;2022-11-15T09:50:00;9.50;;;4.40;;
146;SDS011;45999;48.808;9.182;2022-11-15T09:52:34;5.33;;;3.77;;
146;SDS011;45999;48.808;9.182;2022-11-15T09:55:02;8.10;;;4.40;;
146;SDS011;45999;48.808;9.182;2022-11-15T09:57:33;7.33;;;3.90;;
146;SDS011;45999;48.808;9.182;2022-11-15T10:00:21;4.17;;;3.77;;
146;SDS011;45999;48.808;9.182;2022-11-15T10:03:13;8.60;;;3.90;;
146;SDS011;45999;48.808;9.182;2022-11-15T10:05:51;4.13;;;3.30;;
146;SDS011;45999;48.808;9.182;2022-11-15T10:11:06;6.93;;;3.63;;
146;SDS011;45999;48.808;9.182;2022-11-15T10:13:37;8.77;;;3.60;;
146;SDS011;45999;48.808;9.182;2022-11-15T10:24:25;8.03;;;4.00;;
146;SDS011;45999;48.808;9.182;2022-11-15T10:26:54;4.97;;;3.77;;
146;SDS011;45999;48.808;9.182;2022-11-15T10:29:22;9.43;;;3.83;;
146;SDS011;45999;48.808;9.182;2022-11-15T10:31:50;9.93;;;4.00;;
146;SDS011;45999;48.808;9.182;2022-11-15T10:34:18;10.30;;;3.70;;
146;SDS011;45999;48.808;9.182;2022-11-15T10:36:58;9.90;;;3.97;;
146;SDS011;45999;48.808;9.182;2022-11-15T10:39:27;7.17;;;4.00;;
146;SDS011;45999;48.808;9.182;2022-11-15T10:41:54;7.83;;;4.00;;
146;SDS011;45999;48.808;9.182;2022-11-15T10:47:32;7.30;;;4.50;;
146;SDS011;45999;48.808;9.182;2022-11-15T10:49:53;7.20;;;4.30;;
146;SDS011;45999;48.808;9.182;2022-11-15T10:52:24;8.57;;;4.50;;
146;SDS011;45999;48.808;9.182;2022-11-15T10:54:53;7.73;;;4.20;;
146;SDS011;45999;48.808;9.182;2022-11-15T10:57:25;7.37;;;5.00;;
146;SDS011;45999;48.808;9.182;2022-11-15T11:00:07;9.23;;;5.10;;
146;SDS011;45999;48.808;9.182;2022-11-15T11:03:05;6.27;;;4.70;;
146;SDS011;45999;48.808;9.182;2022-11-15T11:06:02;9.67;;;5.23;;
146;SDS011;45999;48.808;9.182;2022-11-15T11:08:30;9.03;;;5.30;;
146;SDS011;45999;48.808;9.182;2022-11-15T11:10:59;10.23;;;5.13;;
146;SDS011;45999;48.808;9.182;2022-11-15T11:19:18;11.07;;;5.33;;
146;SDS011;45999;48.808;9.182;2022-11-15T11:29:38;7.07;;;4.50;;
146;SDS011;45999;48.808;9.182;2022-11-15T11:43:25;7.90;;;4.70;;
146;SDS011;45999;48.808;9.182;2022-11-15T11:48:44;10.10;;;5.10;;
146;SDS011;45999;48.808;9.182;2022-11-15T11:51:18;7.13;;;4.80;;
146;SDS011;45999;48.808;9.182;2022-11-15T11:54:00;8.57;;;5.17;;
146;SDS011;45999;48.808;9.182;2022-11-15T11:56:32;9.97;;;5.13;;
146;SDS011;45999;48.808;9.182;2022-11-15T11:59:05;6.83;;;4.83;;
146;SDS011;45999;48.808;9.182;2022-11-15T12:01:42;8.33;;;5.30;;
146;SDS011;45999;48.808;9.182;2022-11-15T12:04:18;10.20;;;5.47;;
146;SDS011;45999;48.808;9.182;2022-11-15T12:06:54;8.53;;;5.27;;
146;SDS011;45999;48.808;9.182;2022-11-15T12:10:11;9.00;;;5.33;;
146;SDS011;45999;48.808;9.182;2022-11-15T12:15:43;5.43;;;4.77;;
146;SDS011;45999;48.808;9.182;2022-11-15T12:18:15;8.60;;;5.27;;
146;SDS011;45999;48.808;9.182;2022-11-15T12:20:49;7.23;;;4.47;;
146;SDS011;45999;48.808;9.182;2022-11-15T12:23:25;7.67;;;4.63;;
146;SDS011;45999;48.808;9.182;2022-11-15T12:25:56;7.53;;;4.73;;
146;SDS011;45999;48.808;9.182;2022-11-15T12:28:42;5.80;;;4.43;;
146;SDS011;45999;48.808;9.182;2022-11-15T12:31:32;9.33;;;5.23;;
146;SDS011;45999;48.808;9.182;2022-11-15T12:36:47;6.97;;;4.67;;
146;SDS011;45999;48.808;9.182;2022-11-15T12:39:16;7.63;;;4.37;;
146;SDS011;45999;48.808;9.182;2022-11-15T12:57:22;9.53;;;4.77;;
146;SDS011;45999;48.808;9.182;2022-11-15T13:02:30;9.93;;;4.53;;
146;SDS011;45999;48.808;9.182;2022-11-15T13:10:53;8.73;;;5.03;;
146;SDS011;45999;48.808;9.182;2022-11-15T13:12:59;9.17;;;4.67;;
146;SDS011;45999;48.808;9.182;2022-11-15T13:15:32;7.83;;;4.80;;
146;SDS011;45999;48.808;9.182;2022-11-15T13:20:56;6.90;;;4.60;;
146;SDS011;45999;48.808;9.182;2022-11-15T13:23:22;5.97;;;4.20;;
146;SDS011;45999;48.808;9.182;2022-11-15T13:28:39;6.77;;;4.30;;
146;SDS011;45999;48.808;9.182;2022-11-15T13:31:26;9.87;;;4.40;;
146;SDS011;45999;48.808;9.182;2022-11-15T13:34:48;11.07;;;4.30;;
146;SDS011;45999;48.808;9.182;2022-11-15T13:36:57;9.20;;;4.20;;
146;SDS011;45999;48.808;9.182;2022-11-15T13:39:31;5.60;;;3.67;;
146;SDS011;45999;48.808;9.182;2022-11-15T13:41:59;6.37;;;3.47;;
146;SDS011;45999;48.808;9.182;2022-11-15T13:44:27;4.87;;;3.13;;
146;SDS011;45999;48.808;9.182;2022-11-15T13:47:03;7.70;;;3.20;;
146;SDS011;45999;48.808;9.182;2022-11-15T13:49:33;6.13;;;3.10;;
146;SDS011;45999;48.808;9.182;2022-11-15T13:52:00;4.20;;;3.10;;
146;SDS011;45999;48.808;9.182;2022-11-15T13:54:34;7.83;;;3.50;;
146;SDS011;45999;48.808;9.182;2022-11-15T14:02:53;6.60;;;3.03;;
146;SDS011;45999;48.808;9.182;2022-11-15T14:05:17;4.17;;;3.30;;
146;SDS011;45999;48.808;9.182;2022-11-15T14:08:12;3.60;;;3.10;;
146;SDS011;45999;48.808;9.182;2022-11-15T14:10:48;5.37;;;3.27;;
146;SDS011;45999;48.808;9.182;2022-11-15T14:13:28;6.87;;;3.57;;
146;SDS011;45999;48.808;9.182;2022-11-15T14:16:13;7.07;;;4.20;;
146;SDS011;45999;48.808;9.182;2022-11-15T14:18:41;6.53;;;3.90;;
146;SDS011;45999;48.808;9.182;2022-11-15T14:21:10;5.73;;;3.90;;
146;SDS011;45999;48.808;9.182;2022-11-15T14:23:37;7.40;;;4.60;;
146;SDS011;45999;48.808;9.182;2022-11-15T14:26:03;8.97;;;4.77;;
146;SDS011;45999;48.808;9.182;2022-11-15T14:28:31;9.60;;;4.83;;
146;SDS011;45999;48.808;9.182;2022-11-15T14:31:02;9.70;;;4.30;;
146;SDS011;45999;48.808;9.182;2022-11-15T14:33:37;7.17;;;4.87;;
146;SDS011;45999;48.808;9.182;2022-11-15T14:38:39;6.30;;;4.33;;
146;SDS011;45999;48.808;9.182;2022-11-15T14:41:05;5.20;;;4.10;;
146;SDS011;45999;48.808;9.182;2022-11-15T14:43:43;6.80;;;3.63;;
146;SDS011;45999;48.808;9.182;2022-11-15T14:46:09;5.90;;;3.97;;
146;SDS011;45999;48.808;9.182;2022-11-15T14:48:35;9.80;;;4.30;;
146;SDS011;45999;48.808;9.182;2022-11-15T14:51:02;6.40;;;3.83;;
146;SDS011;45999;48.808;9.182;2022-11-15T14:53:29;6.73;;;3.80;;
146;SDS011;45999;48.808;9.182;2022-11-15T14:55:55;5.47;;;3.90;;
146;SDS011;45999;48.808;9.182;2022-11-15T14:58:21;5.43;;;3.60;;
146;SDS011;45999;48.808;9.182;2022-11-15T15:00:48;5.43;;;4.50;;
146;SDS011;45999;48.808;9.182;2022-11-15T15:03:15;6.23;;;3.93;;
146;SDS011;45999;48.808;9.182;2022-11-15T15:05:42;5.10;;;3.50;;
146;SDS011;45999;48.808;9.182;2022-11-15T15:08:09;4.90;;;3.70;;
146;SDS011;45999;48.808;9.182;2022-11-15T15:10:37;4.63;;;3.57;;
146;SDS011;45999;48.808;9.182;2022-11-15T15:13:17;6.63;;;3.40;;
146;SDS011;45999;48.808;9.182;2022-11-15T15:15:49;6.00;;;3.20;;
146;SDS011;45999;48.808;9.182;2022-11-15T15:18:16;7.70;;;6.87;;
146;SDS011;45999;48.808;9.182;2022-11-15T15:20:44;7.10;;;6.50;;
146;SDS011;45999;48.808;9.182;2022-11-15T15:23:17;7.07;;;5.63;;
146;SDS011;45999;48.808;9.182;2022-11-15T15:25:45;7.93;;;4.47;;
146;SDS011;45999;48.808;9.182;2022-11-15T15:28:13;5.70;;;3.50;;
146;SDS011;45999;48.808;9.182;2022-11-15T15:30:40;5.87;;;3.23;;
146;SDS011;45999;48.808;9.182;2022-11-15T15:33:07;4.93;;;3.70;;
146;SDS011;45999;48.808;9.182;2022-11-15T15:35:33;5.07;;;2.90;;
146;SDS011;45999;48.808;9.182;2022-11-15T15:38:00;4.57;;;3.10;;
146;SDS011;45999;48.808;9.182;2022-11-15T15:40:28;3.97;;;3.40;;
146;SDS011;45999;48.808;9.182;2022-11-15T15:42:56;3.63;;;3.03;;
146;SDS011;45999;48.808;9.182;2022-11-15T15:45:24;6.03;;;3.30;;
146;SDS011;45999;48.808;9.182;2022-11-15T15:47:51;6.87;;;3.50;;
146;SDS011;45999;48.808;9.182;2022-11-15T15:52:53;5.67;;;2.90;;
146;SDS011;45999;48.808;9.182;2022-11-15T15:55:22;7.00;;;3.20;;
146;SDS011;45999;48.808;9.182;2022-11-15T15:57:49;5.53;;;3.13;;
146;SDS011;45999;48.808;9.182;2022-11-15T16:00:16;5.20;;;3.30;;
146;SDS011;45999;48.808;9.182;2022-11-15T16:02:43;6.07;;;3.50;;
146;SDS011;45999;48.808;9.182;2022-11-15T16:05:10;3.33;;;3.03;;
146;SDS011;45999;48.808;9.182;2022-11-15T16:07:38;5.40;;;3.10;;
146;SDS011;45999;48.808;9.182;2022-11-15T16:12:45;4.50;;;3.10;;
146;SDS011;45999;48.808;9.182;2022-11-15T16:15:12;3.43;;;2.97;;
146;SDS011;45999;48.808;9.182;2022-11-15T16:17:39;5.20;;;3.00;;
146;SDS011;45999;48.808;9.182;2022-11-15T16:20:19;7.37;;;3.13;;
146;SDS011;45999;48.808;9.182;2022-11-15T16:22:50;6.83;;;3.00;;
146;SDS011;45999;48.808;9.182;2022-11-15T16:25:16;6.40;;;3.43;;
146;SDS011;45999;48.808;9.182;2022-11-15T16:27:43;4.73;;;3.13;;
146;SDS011;45999;48.808;9.182;2022-11-15T16:30:17;12.30;;;7.30;;
146;SDS011;45999;48.808;9.182;2022-11-15T16:32:48;7.47;;;3.80;;
146;SDS011;45999;48.808;9.182;2022-11-15T16:35:15;9.43;;;3.83;;
146;SDS011;45999;48.808;9.182;2022-11-15T16:37:42;5.60;;;3.13;;
146;SDS011;45999;48.808;9.182;2022-11-15T16:40:25;5.23;;;3.23;;
146;SDS011;45999;48.808;9.182;2022-11-15T16:42:54;6.20;;;3.50;;
146;SDS011;45999;48.808;9.182;2022-11-15T16:45:21;6.10;;;3.37;;
146;SDS011;45999;48.808;9.182;2022-11-15T16:47:49;7.10;;;3.53;;
146;SDS011;45999;48.808;9.182;2022-11-15T16:50:17;6.03;;;3.37;;
146;SDS011;45999;48.808;9.182;2022-11-15T16:52:52;3.90;;;3.20;;
146;SDS011;45999;48.808;9.182;2022-11-15T16:55:23;5.50;;;3.00;;
146;SDS011;45999;48.808;9.182;2022-11-15T16:57:50;3.87;;;3.20;;
146;SDS011;45999;48.808;9.182;2022-11-15T17:00:17;6.97;;;3.30;;
146;SDS011;45999;48.808;9.182;2022-11-15T17:02:45;6.47;;;3.20;;
146;SDS011;45999;48.808;9.182;2022-11-15T17:05:14;5.93;;;3.17;;
146;SDS011;45999;48.808;9.182;2022-11-15T17:07:46;7.57;;;4.10;;
146;SDS011;45999;48.808;9.182;2022-11-15T17:10:14;4.23;;;3.33;;
146;SDS011;45999;48.808;9.182;2022-11-15T17:12:41;5.63;;;3.13;;
146;SDS011;45999;48.808;9.182;2022-11-15T17:15:08;5.77;;;3.47;;
146;SDS011;45999;48.808;9.182;2022-11-15T17:17:37;5.20;;;3.60;;
146;SDS011;45999;48.808;9.182;2022-11-15T17:20:04;6.63;;;4.37;;
146;SDS011;45999;48.808;9.182;2022-11-15T17:22:34;7.90;;;4.70;;
146;SDS011;45999;48.808;9.182;2022-11-15T17:25:02;8.57;;;5.13;;
146;SDS011;45999;48.808;9.182;2022-11-15T17:27:29;6.90;;;4.53;;
146;SDS011;45999;48.808;9.182;2022-11-15T17:29:56;6.90;;;4.60;;
146;SDS011;45999;48.808;9.182;2022-11-15T17:32:22;6.73;;;4.43;;
146;SDS011;45999;48.808;9.182;2022-11-15T17:34:49;5.97;;;4.40;;
146;SDS011;45999;48.808;9.182;2022-11-15T17:37:15;7.87;;;4.97;;
146;SDS011;45999;48.808;9.182;2022-11-15T17:39:41;9.23;;;4.40;;